Time;durP1;ratioP1;P1;durP2;ratioP2;P2;SDS_P1;SDS_P2;PMS_P1;PMS_P2;Temp;Humidity;BMP_temperature;BMP_pressure;BME280_temperature;BME280_humidity;BME280_pressure;Samples;Min_cycle;Max_cycle;Signal;HPM_P1;HPM_P2
2021/06/10 00:00:21;;;;;;;14.50;7.68;;;410.50;2355.20;;;;;;5053210;28;20021;-82
2021/06/10 00:02:48;;;;;;;17.83;8.23;;;410.50;2355.20;;;;;;5052885;28;20029;-82
2021/06/10 00:05:15;;;;;;;21.55;9.35;;;410.50;2355.20;;;;;;5052796;28;20064;-81
2021/06/10 00:07:41;;;;;;;28.60;11.18;;;410.50;2355.20;;;;;;5050596;28;20067;-76
2021/06/10 00:10:19;;;;;;;26.75;11.82;;;410.40;2355.20;;;;;;5052890;28;20442;-72
2021/06/10 00:12:45;;;;;;;29.00;11.68;;;410.40;2355.20;;;;;;5052928;28;20025;-72
2021/06/10 00:15:14;;;;;;;33.85;13.77;;;410.30;2355.20;;;;;;5052678;28;20036;-72
2021/06/10 00:17:40;;;;;;;41.35;17.25;;;410.30;2355.20;;;;;;5052865;28;20395;-72
2021/06/10 00:20:08;;;;;;;36.60;16.73;;;410.30;2355.20;;;;;;5052522;28;20013;-75
2021/06/10 00:22:34;;;;;;;39.80;16.17;;;410.30;2355.20;;;;;;5052503;28;20506;-72
2021/06/10 00:25:00;;;;;;;43.33;19.27;;;410.30;2355.20;;;;;;5052587;28;20040;-72
2021/06/10 00:27:26;;;;;;;41.08;17.88;;;410.20;2355.20;;;;;;5052657;28;20029;-72
2021/06/10 00:29:52;;;;;;;44.95;17.45;;;410.20;2355.20;;;;;;5052690;28;20036;-72
2021/06/10 00:32:18;;;;;;;38.60;17.13;;;410.20;2355.20;;;;;;5034731;28;20082;-71
2021/06/10 00:34:44;;;;;;;42.13;16.98;;;410.10;2355.20;;;;;;5053964;28;20484;-72
2021/06/10 00:37:12;;;;;;;45.90;18.30;;;410.00;2355.20;;;;;;5052325;28;20044;-73
2021/06/10 00:39:38;;;;;;;33.50;13.68;;;409.90;2355.20;;;;;;5052346;28;20021;-76
2021/06/10 00:42:05;;;;;;;34.85;14.93;;;409.80;2355.20;;;;;;5052448;28;20028;-71
2021/06/10 00:44:31;;;;;;;34.63;13.40;;;409.60;2355.20;;;;;;5052546;28;20021;-74
2021/06/10 00:46:57;;;;;;;22.90;10.05;;;409.60;2355.20;;;;;;5052675;28;20032;-73
2021/06/10 00:49:23;;;;;;;21.15;9.38;;;384.80;2329.60;;;;;;5052555;28;20075;-72
2021/06/10 00:51:49;;;;;;;23.52;9.43;;;384.70;2329.60;;;;;;5034552;28;20052;-72
2021/06/10 00:54:15;;;;;;;23.40;10.40;;;384.70;2329.60;;;;;;5052236;28;20476;-75
2021/06/10 00:56:42;;;;;;;41.33;16.45;;;384.60;2329.60;;;;;;5052262;28;20033;-72
2021/06/10 00:59:08;;;;;;;22.33;9.80;;;384.60;2329.60;;;;;;5055483;28;20082;-78
2021/06/10 01:01:34;;;;;;;19.35;8.23;;;384.60;2329.60;;;;;;5056426;28;20029;-79
2021/06/10 01:04:00;;;;;;;13.10;6.85;;;384.50;2329.60;;;;;;5056400;28;20041;-76
2021/06/10 01:06:32;;;;;;;9.27;6.25;;;384.40;2329.60;;;;;;5056435;28;20099;-77
2021/06/10 01:09:05;;;;;;;10.65;6.22;;;384.40;2329.60;;;;;;5056283;28;20053;-77
2021/06/10 01:11:39;;;;;;;10.82;6.13;;;384.30;2329.60;;;;;;5056390;28;20036;-77
2021/06/10 01:14:14;;;;;;;8.73;5.63;;;384.20;2329.60;;;;;;5056208;28;20116;-76
2021/06/10 01:16:43;;;;;;;9.57;6.18;;;384.20;2329.60;;;;;;5056135;28;20029;-78
2021/06/10 01:19:23;;;;;;;10.82;6.05;;;384.10;2329.60;;;;;;5056215;28;20025;-77
2021/06/10 01:21:53;;;;;;;10.98;6.38;;;384.10;2329.60;;;;;;5056270;28;20083;-75
2021/06/10 01:24:44;;;;;;;12.70;7.43;;;384.10;2329.60;;;;;;5055992;28;20025;-75
2021/06/10 01:27:18;;;;;;;16.20;7.82;;;384.00;2329.60;;;;;;5056117;28;20025;-73
2021/06/10 01:29:48;;;;;;;16.73;8.75;;;359.30;2329.60;;;;;;5055846;28;20017;-75
2021/06/10 01:32:14;;;;;;;17.65;8.88;;;359.30;2329.60;;;;;;5055983;28;20013;-74
2021/06/10 01:34:40;;;;;;;17.38;8.50;;;359.30;2329.60;;;;;;5055871;28;20029;-75
2021/06/10 01:37:06;;;;;;;10.77;7.38;;;359.20;2329.60;;;;;;5055790;28;20025;-77
2021/06/10 01:39:33;;;;;;;11.10;7.43;;;359.10;2329.60;;;;;;5055721;28;20029;-76
2021/06/10 01:41:59;;;;;;;12.77;8.07;;;359.20;2329.60;;;;;;5055565;28;20041;-75
2021/06/10 01:44:27;;;;;;;11.65;7.75;;;359.20;2329.60;;;;;;5055675;28;20032;-77
2021/06/10 01:46:54;;;;;;;15.63;7.75;;;359.20;2329.60;;;;;;5055520;28;20104;-76
2021/06/10 01:49:20;;;;;;;16.95;8.57;;;359.20;2329.60;;;;;;5055693;28;20378;-76
2021/06/10 01:51:47;;;;;;;11.57;7.32;;;359.30;2329.60;;;;;;5055330;28;20021;-71
2021/06/10 01:54:15;;;;;;;14.52;8.55;;;359.30;2329.60;;;;;;5055769;28;20025;-71
2021/06/10 01:56:43;;;;;;;13.52;8.88;;;359.30;2329.60;;;;;;5055715;28;20029;-72
2021/06/10 01:59:10;;;;;;;22.98;10.98;;;359.30;2329.60;;;;;;5055310;28;20024;-75
2021/06/10 02:01:38;;;;;;;18.60;10.10;;;359.30;2329.60;;;;;;5055375;28;20033;-80
2021/06/10 02:04:04;;;;;;;16.92;10.07;;;384.00;2329.60;;;;;;5055172;28;20017;-80
2021/06/10 02:06:32;;;;;;;24.77;10.77;;;384.00;2329.60;;;;;;5055276;28;20028;-82
2021/06/10 02:08:59;;;;;;;19.95;10.80;;;384.00;2329.60;;;;;;5054787;28;20052;-80
2021/06/10 02:11:25;;;;;;;18.52;10.90;;;384.00;2329.60;;;;;;5054897;28;20043;-77
2021/06/10 02:13:51;;;;;;;16.70;10.10;;;384.00;2329.60;;;;;;5055073;28;20029;-72
2021/06/10 02:16:18;;;;;;;16.02;9.68;;;384.10;2329.60;;;;;;5054978;28;20028;-72
2021/06/10 02:18:46;;;;;;;15.40;8.60;;;384.10;2329.60;;;;;;5055076;28;20078;-75
2021/06/10 02:21:13;;;;;;;15.23;8.40;;;384.10;2329.60;;;;;;5054905;28;20045;-72
2021/06/10 02:23:41;;;;;;;10.07;7.65;;;384.10;2329.60;;;;;;5054892;28;20029;-71
2021/06/10 02:26:07;;;;;;;10.02;7.57;;;384.00;2329.60;;;;;;5054967;28;20028;-72
2021/06/10 02:28:34;;;;;;;13.15;7.55;;;384.00;2329.60;;;;;;5054738;28;20037;-72
2021/06/10 02:31:02;;;;;;;11.95;8.20;;;384.00;2329.60;;;;;;5055053;28;20029;-71
2021/06/10 02:33:28;;;;;;;13.43;8.60;;;384.00;2329.60;;;;;;5054718;28;20021;-72
2021/06/10 02:35:54;;;;;;;13.25;8.05;;;384.00;2329.60;;;;;;5054963;28;20108;-72
2021/06/10 02:38:21;;;;;;;13.20;7.45;;;359.30;2329.60;;;;;;5054763;28;20112;-73
2021/06/10 02:40:51;;;;;;;11.65;6.90;;;359.20;2329.60;;;;;;5054763;28;20036;-72
2021/06/10 02:43:18;;;;;;;9.65;6.30;;;359.00;2329.60;;;;;;5054550;28;20035;-72
2021/06/10 02:45:45;;;;;;;9.88;6.60;;;359.00;2329.60;;;;;;5057279;28;20029;-71
2021/06/10 02:48:12;;;;;;;10.88;6.72;;;358.90;2329.60;;;;;;5060883;28;20021;-72
2021/06/10 02:50:40;;;;;;;10.93;6.57;;;358.80;2329.60;;;;;;5054338;28;20025;-72
2021/06/10 02:53:08;;;;;;;9.38;6.68;;;358.70;2329.60;;;;;;5054265;28;20104;-73
2021/06/10 02:55:37;;;;;;;9.10;6.97;;;358.70;2329.60;;;;;;5054062;28;20317;-72
2021/06/10 02:58:04;;;;;;;11.10;7.28;;;358.60;2329.60;;;;;;5054194;28;20036;-72
2021/06/10 03:00:33;;;;;;;13.48;7.07;;;358.50;2329.60;;;;;;5054170;28;20480;-72
2021/06/10 03:03:01;;;;;;;11.90;7.38;;;358.50;2329.60;;;;;;5054173;28;20017;-71
2021/06/10 03:05:28;;;;;;;11.88;7.43;;;358.40;2329.60;;;;;;5054115;28;20024;-72
2021/06/10 03:07:55;;;;;;;9.63;7.28;;;358.40;2329.60;;;;;;5053961;28;20449;-71
2021/06/10 03:10:26;;;;;;;11.10;8.18;;;358.50;2329.60;;;;;;5054093;28;20024;-72
2021/06/10 03:12:53;;;;;;;12.45;8.70;;;358.40;2329.60;;;;;;5045459;28;20509;-72
2021/06/10 03:15:20;;;;;;;11.23;7.85;;;358.50;2329.60;;;;;;5053816;28;20160;-71
2021/06/10 03:17:46;;;;;;;12.27;8.40;;;358.50;2329.60;;;;;;5053932;28;20024;-71
2021/06/10 03:20:12;;;;;;;17.75;12.25;;;358.60;2329.60;;;;;;5054028;28;20017;-72
2021/06/10 03:22:38;;;;;;;13.75;9.90;;;358.60;2329.60;;;;;;5052814;28;20501;-72
2021/06/10 03:25:06;;;;;;;13.02;8.95;;;358.50;2329.60;;;;;;5053669;28;20090;-72
2021/06/10 03:27:33;;;;;;;15.75;9.27;;;358.50;2329.60;;;;;;5053752;28;20091;-72
2021/06/10 03:30:00;;;;;;;15.45;10.40;;;358.50;2329.60;;;;;;5053536;28;20264;-71
2021/06/10 03:32:29;;;;;;;13.55;10.15;;;358.50;2329.60;;;;;;5053766;28;20013;-72
2021/06/10 03:34:56;;;;;;;16.83;10.95;;;358.50;2329.60;;;;;;5053572;28;20024;-72
2021/06/10 03:37:23;;;;;;;35.13;23.73;;;358.70;2329.60;;;;;;5053544;28;20087;-72
2021/06/10 03:39:51;;;;;;;15.27;11.43;;;358.90;2329.60;;;;;;5053395;28;20017;-73
2021/06/10 03:42:18;;;;;;;12.55;9.77;;;358.90;2329.60;;;;;;5053752;28;20021;-72
2021/06/10 03:44:45;;;;;;;11.02;8.85;;;359.00;2329.60;;;;;;5053523;28;20021;-72
2021/06/10 03:47:15;;;;;;;11.30;8.73;;;359.10;2329.60;;;;;;5053296;28;20036;-71
2021/06/10 03:49:42;;;;;;;9.47;8.23;;;359.00;2329.60;;;;;;5053382;28;20414;-72
2021/06/10 03:52:08;;;;;;;14.90;11.45;;;359.00;2329.60;;;;;;5053290;28;20021;-72
2021/06/10 03:54:34;;;;;;;10.45;7.70;;;359.10;2329.60;;;;;;5053267;28;20025;-72
2021/06/10 03:56:59;;;;;;;10.13;7.10;;;359.10;2329.60;;;;;;5053143;28;20025;-72
2021/06/10 03:59:25;;;;;;;9.30;7.57;;;359.30;2329.60;;;;;;5053098;28;20096;-72
2021/06/10 04:01:51;;;;;;;8.68;7.00;;;384.00;2329.60;;;;;;5053096;28;20048;-71
2021/06/10 04:04:18;;;;;;;12.23;8.75;;;384.30;2329.60;;;;;;5052937;28;20135;-72
2021/06/10 04:06:44;;;;;;;11.43;9.63;;;384.30;2329.60;;;;;;5052739;28;20120;-72
2021/06/10 04:09:10;;;;;;;12.25;9.73;;;384.40;2329.60;;;;;;5053149;28;20115;-72
2021/06/10 04:11:38;;;;;;;9.25;8.20;;;384.40;2329.60;;;;;;5052903;28;20045;-72
2021/06/10 04:14:04;;;;;;;10.65;8.23;;;384.40;2329.60;;;;;;5052614;28;20025;-72
2021/06/10 04:16:30;;;;;;;11.48;7.90;;;384.40;2329.60;;;;;;5052789;28;20116;-72
2021/06/10 04:18:56;;;;;;;9.55;7.68;;;384.60;2329.60;;;;;;5053093;28;20387;-73
2021/06/10 04:21:23;;;;;;;9.57;7.15;;;384.70;2329.60;;;;;;5047011;28;20027;-75
2021/06/10 04:23:49;;;;;;;9.52;6.90;;;384.90;2329.60;;;;;;5066881;28;20028;-72
2021/06/10 04:26:16;;;;;;;8.65;7.07;;;384.80;2329.60;;;;;;5070294;28;20167;-72
2021/06/10 04:28:45;;;;;;;8.50;6.63;;;384.90;2329.60;;;;;;5062424;28;20017;-72
2021/06/10 04:31:12;;;;;;;8.88;6.95;;;409.60;2355.20;;;;;;5067169;28;20027;-72
2021/06/10 04:33:38;;;;;;;9.23;6.93;;;409.60;2355.20;;;;;;5062003;28;20067;-73
2021/06/10 04:36:04;;;;;;;9.48;6.95;;;409.70;2355.20;;;;;;5052303;28;20052;-76
2021/06/10 04:38:30;;;;;;;7.97;6.88;;;409.90;2355.20;;;;;;5051935;28;20493;-81
2021/06/10 04:40:56;;;;;;;8.30;6.80;;;410.00;2355.20;;;;;;5052452;28;20100;-72
2021/06/10 04:43:21;;;;;;;9.73;7.35;;;410.20;2355.20;;;;;;5052182;28;20212;-73
2021/06/10 04:45:47;;;;;;;11.00;7.90;;;410.30;2355.20;;;;;;5052435;28;20026;-72
2021/06/10 04:48:13;;;;;;;10.38;6.97;;;410.50;2355.20;;;;;;5052301;28;20383;-75
2021/06/10 04:50:39;;;;;;;10.05;6.97;;;435.30;2355.20;;;;;;5052328;28;20021;-78
2021/06/10 04:53:05;;;;;;;9.45;7.40;;;435.40;2355.20;;;;;;5052248;28;20479;-81
2021/06/10 04:55:31;;;;;;;11.77;7.30;;;435.50;2355.20;;;;;;5052092;28;20021;-81
2021/06/10 04:57:56;;;;;;;8.82;6.93;;;435.70;2355.20;;;;;;5052331;28;20036;-80
2021/06/10 05:00:22;;;;;;;9.98;7.25;;;436.00;2355.20;;;;;;5052400;28;20025;-79
2021/06/10 05:02:48;;;;;;;12.13;9.07;;;460.80;2380.80;;;;;;5052358;28;20423;-72
2021/06/10 05:05:14;;;;;;;12.93;9.80;;;460.80;2380.80;;;;;;5052197;28;20029;-72
2021/06/10 05:07:40;;;;;;;13.10;9.60;;;460.90;2380.80;;;;;;5052248;28;20046;-73
2021/06/10 05:10:06;;;;;;;18.05;10.52;;;461.10;2380.80;;;;;;5052189;28;20022;-74
2021/06/10 05:12:32;;;;;;;15.43;10.55;;;461.10;2380.80;;;;;;5052515;28;20441;-74
2021/06/10 05:14:58;;;;;;;16.27;10.82;;;461.10;2380.80;;;;;;5052191;28;20013;-74
2021/06/10 05:17:25;;;;;;;15.68;10.05;;;461.20;2380.80;;;;;;5052260;28;20543;-74
2021/06/10 05:19:50;;;;;;;13.65;10.02;;;461.30;2380.80;;;;;;5052254;28;20017;-73
2021/06/10 05:22:16;;;;;;;15.98;10.77;;;461.50;2380.80;;;;;;5069427;28;20017;-73
2021/06/10 05:24:42;;;;;;;12.55;8.70;;;461.50;2380.80;;;;;;5068249;28;20523;-74
2021/06/10 05:27:09;;;;;;;11.82;8.60;;;461.50;2380.80;;;;;;5070232;28;20074;-74
2021/06/10 05:29:37;;;;;;;11.68;7.70;;;461.40;2380.80;;;;;;5070200;28;20089;-72
2021/06/10 05:32:03;;;;;;;12.85;8.43;;;486.40;2380.80;;;;;;5051936;28;20024;-74
2021/06/10 05:34:29;;;;;;;9.52;8.50;;;486.50;2380.80;;;;;;5051984;28;20028;-75
2021/06/10 05:36:55;;;;;;;13.70;7.57;;;486.70;2380.80;;;;;;5056310;28;20029;-72
2021/06/10 05:39:21;;;;;;;10.73;7.85;;;486.90;2380.80;;;;;;5061274;28;20017;-73
2021/06/10 05:41:47;;;;;;;11.63;8.07;;;487.20;2380.80;;;;;;5051461;28;20029;-73
2021/06/10 05:44:13;;;;;;;13.63;8.15;;;487.20;2380.80;;;;;;5051583;28;20025;-72
2021/06/10 05:46:40;;;;;;;9.93;7.93;;;487.00;2380.80;;;;;;5055513;28;20031;-73
2021/06/10 05:49:06;;;;;;;14.48;9.07;;;512.00;2380.80;;;;;;5055494;28;20055;-73
2021/06/10 05:51:32;;;;;;;15.13;9.07;;;512.20;2380.80;;;;;;5055656;28;20025;-73
2021/06/10 05:53:58;;;;;;;10.73;8.25;;;512.40;2380.80;;;;;;5055293;28;20096;-72
2021/06/10 05:56:24;;;;;;;11.60;7.57;;;512.80;2380.80;;;;;;5055525;28;20059;-72
2021/06/10 05:58:49;;;;;;;10.40;8.10;;;512.70;2380.80;;;;;;5055227;28;20036;-73
2021/06/10 06:01:15;;;;;;;8.02;6.97;;;512.90;2380.80;;;;;;5055368;28;20387;-72
2021/06/10 06:03:42;;;;;;;12.43;7.63;;;537.70;2406.40;;;;;;5055276;28;20040;-73
2021/06/10 06:06:08;;;;;;;9.50;7.55;;;538.10;2406.40;;;;;;5055158;28;20532;-73
2021/06/10 06:08:34;;;;;;;8.93;7.50;;;538.30;2406.40;;;;;;5055301;28;20470;-73
2021/06/10 06:11:00;;;;;;;9.52;7.75;;;563.20;2432.00;;;;;;5054855;28;20498;-73
2021/06/10 06:13:44;;;;;;;8.98;7.75;;;563.40;2432.00;;;;;;5055228;28;20471;-72
2021/06/10 06:16:10;;;;;;;9.70;7.72;;;563.30;2432.00;;;;;;5054800;28;20033;-73
2021/06/10 06:18:36;;;;;;;12.10;7.95;;;563.60;2432.00;;;;;;5055179;28;20536;-73
2021/06/10 06:21:02;;;;;;;9.90;7.50;;;563.80;2432.00;;;;;;5055175;28;20028;-74
2021/06/10 06:23:29;;;;;;;10.38;8.27;;;563.80;2432.00;;;;;;5054992;28;20028;-72
2021/06/10 06:25:55;;;;;;;9.45;7.70;;;563.80;2432.00;;;;;;5054994;28;20021;-73
2021/06/10 06:28:21;;;;;;;13.32;7.53;;;564.00;2432.00;;;;;;5054720;28;20028;-73
2021/06/10 06:30:47;;;;;;;12.27;7.55;;;589.00;2432.00;;;;;;5054967;28;20025;-73
2021/06/10 06:33:12;;;;;;;9.88;7.25;;;588.90;2432.00;;;;;;5054713;28;20035;-72
2021/06/10 06:35:41;;;;;;;10.07;7.50;;;589.30;2432.00;;;;;;5054838;28;20025;-73
2021/06/10 06:38:07;;;;;;;10.20;7.53;;;589.60;2432.00;;;;;;5054706;28;20135;-73
2021/06/10 06:40:33;;;;;;;11.13;7.80;;;589.50;2432.00;;;;;;5054638;28;20509;-72
2021/06/10 06:43:00;;;;;;;10.90;7.32;;;614.40;2432.00;;;;;;5054699;28;20539;-73
2021/06/10 06:45:26;;;;;;;9.20;7.35;;;614.70;2432.00;;;;;;5054442;28;20028;-72
2021/06/10 06:47:52;;;;;;;11.13;7.50;;;614.70;2432.00;;;;;;5054552;28;20020;-73
2021/06/10 06:50:18;;;;;;;9.35;7.28;;;614.40;2432.00;;;;;;5054503;28;20112;-72
2021/06/10 06:52:43;;;;;;;10.18;7.75;;;614.40;2432.00;;;;;;5054329;28;20383;-73
2021/06/10 06:55:10;;;;;;;8.68;7.20;;;589.70;2432.00;;;;;;5054247;28;20029;-72
2021/06/10 06:57:36;;;;;;;9.20;6.90;;;614.50;2432.00;;;;;;5054406;28;20467;-73
2021/06/10 07:00:03;;;;;;;10.35;7.35;;;615.00;2432.00;;;;;;5054258;28;20162;-73
2021/06/10 07:02:29;;;;;;;10.15;7.15;;;640.00;2432.00;;;;;;5054064;28;20017;-72
2021/06/10 07:04:54;;;;;;;17.07;14.60;;;640.20;2432.00;;;;;;5054344;28;20104;-73
2021/06/10 07:07:20;;;;;;;9.63;7.20;;;640.70;2432.00;;;;;;5054105;28;20033;-73
2021/06/10 07:09:46;;;;;;;9.85;7.03;;;665.60;2432.00;;;;;;5054225;28;20087;-73
2021/06/10 07:12:11;;;;;;;8.73;6.78;;;665.90;2432.00;;;;;;5054019;28;20021;-72
2021/06/10 07:14:37;;;;;;;10.07;6.85;;;666.20;2432.00;;;;;;5053968;28;20029;-72
2021/06/10 07:17:03;;;;;;;10.38;7.03;;;666.30;2432.00;;;;;;5054026;28;20035;-73
2021/06/10 07:19:29;;;;;;;8.13;6.68;;;666.50;2432.00;;;;;;5053871;28;20565;-72
2021/06/10 07:21:55;;;;;;;10.30;7.03;;;691.20;2432.00;;;;;;5054250;28;20029;-73
2021/06/10 07:24:20;;;;;;;9.35;6.88;;;691.40;2432.00;;;;;;5053927;28;20483;-73
2021/06/10 07:26:46;;;;;;;8.43;6.90;;;691.50;2432.00;;;;;;5053613;28;20063;-72
2021/06/10 07:29:14;;;;;;;9.45;7.55;;;691.60;2432.00;;;;;;5053718;28;20035;-72
2021/06/10 07:31:40;;;;;;;8.10;6.78;;;691.80;2432.00;;;;;;5053912;28;20074;-73
2021/06/10 07:34:06;;;;;;;11.75;7.20;;;691.70;2432.00;;;;;;5053706;28;20100;-72
2021/06/10 07:36:34;;;;;;;8.77;6.68;;;691.80;2432.00;;;;;;5053595;28;20053;-73
2021/06/10 07:39:02;;;;;;;9.70;6.85;;;692.10;2432.00;;;;;;5053572;28;20071;-73
2021/06/10 07:41:28;;;;;;;9.63;7.50;;;692.10;2432.00;;;;;;5053556;28;20017;-73
2021/06/10 07:43:54;;;;;;;8.95;7.18;;;717.00;2432.00;;;;;;5053436;28;20467;-73
2021/06/10 07:46:20;;;;;;;11.25;7.72;;;717.00;2432.00;;;;;;5053670;28;20513;-73
2021/06/10 07:48:47;;;;;;;9.18;7.30;;;717.10;2432.00;;;;;;5053150;28;20025;-72
2021/06/10 07:51:13;;;;;;;8.98;7.30;;;717.20;2432.00;;;;;;5053692;28;20025;-73
2021/06/10 07:53:39;;;;;;;10.07;7.43;;;717.40;2432.00;;;;;;5053538;28;20109;-72
2021/06/10 07:56:05;;;;;;;10.20;7.22;;;717.40;2432.00;;;;;;5053222;28;20499;-73
2021/06/10 07:58:33;;;;;;;10.18;6.90;;;717.50;2432.00;;;;;;5053048;28;20029;-73
2021/06/10 08:00:59;;;;;;;9.45;7.25;;;717.70;2432.00;;;;;;5053451;28;20040;-73
2021/06/10 08:03:25;;;;;;;9.50;6.93;;;717.60;2432.00;;;;;;5071075;28;20035;-72
2021/06/10 08:05:52;;;;;;;7.80;6.70;;;717.70;2432.00;;;;;;5054301;28;20028;-73
2021/06/10 08:08:18;;;;;;;10.77;6.63;;;742.40;2432.00;;;;;;5052267;28;20105;-73
2021/06/10 08:10:45;;;;;;;9.98;7.05;;;742.40;2432.00;;;;;;5053116;28;20025;-73
2021/06/10 08:13:12;;;;;;;9.48;6.75;;;717.70;2432.00;;;;;;5053067;28;20037;-73
2021/06/10 08:15:38;;;;;;;13.07;6.95;;;742.40;2432.00;;;;;;5055017;28;20031;-79
2021/06/10 08:18:05;;;;;;;8.45;7.00;;;742.50;2432.00;;;;;;5070391;28;20017;-73
2021/06/10 08:20:31;;;;;;;9.23;6.93;;;742.60;2432.00;;;;;;5071727;28;20099;-73
2021/06/10 08:23:01;;;;;;;10.15;6.45;;;742.80;2432.00;;;;;;5068760;28;20104;-71
2021/06/10 08:25:28;;;;;;;10.10;7.10;;;742.90;2432.00;;;;;;5065527;28;20116;-74
2021/06/10 08:28:02;;;;;;;10.57;6.70;;;743.00;2432.00;;;;;;5070255;28;20029;-77
2021/06/10 08:30:28;;;;;;;8.10;7.15;;;742.80;2432.00;;;;;;5040785;28;20032;-72
2021/06/10 08:32:55;;;;;;;9.07;7.15;;;742.70;2432.00;;;;;;5056628;28;20028;-73
2021/06/10 08:35:20;;;;;;;9.98;6.80;;;742.80;2432.00;;;;;;5051194;28;20477;-75
2021/06/10 08:37:46;;;;;;;7.93;6.72;;;743.00;2406.40;;;;;;5052058;28;20068;-74
2021/06/10 08:40:16;;;;;;;8.45;6.78;;;742.80;2432.00;;;;;;5052177;28;20074;-73
2021/06/10 08:42:43;;;;;;;10.17;6.70;;;742.90;2406.40;;;;;;5052433;28;20029;-73
2021/06/10 08:45:15;;;;;;;9.07;6.78;;;743.00;2406.40;;;;;;5052105;28;20029;-73
2021/06/10 08:47:46;;;;;;;9.32;6.68;;;743.00;2406.40;;;;;;5052140;28;20032;-73
2021/06/10 08:50:18;;;;;;;9.70;7.10;;;743.10;2380.80;;;;;;5052059;28;20016;-73
2021/06/10 08:52:43;;;;;;;9.18;6.65;;;743.00;2406.40;;;;;;5052077;28;20013;-73
2021/06/10 08:55:12;;;;;;;7.70;6.88;;;743.20;2355.20;;;;;;5051988;28;20036;-73
2021/06/10 08:57:38;;;;;;;10.05;6.93;;;768.10;2355.20;;;;;;5051576;28;20029;-72
2021/06/10 09:00:08;;;;;;;10.43;7.03;;;768.10;2355.20;;;;;;5050674;28;20099;-75
2021/06/10 09:02:34;;;;;;;9.23;7.20;;;768.30;2329.60;;;;;;5051478;28;20044;-74
2021/06/10 09:05:08;;;;;;;10.10;7.28;;;768.40;2278.40;;;;;;5051634;28;20387;-73
2021/06/10 09:07:39;;;;;;;10.88;6.60;;;768.40;2304.00;;;;;;5050805;28;20045;-72
2021/06/10 09:10:07;;;;;;;9.73;6.32;;;768.10;2355.20;;;;;;5051868;28;20025;-73
2021/06/10 09:12:51;;;;;;;9.13;6.70;;;768.30;2329.60;;;;;;5051612;28;20028;-72
2021/06/10 09:15:19;;;;;;;10.50;6.68;;;768.10;2329.60;;;;;;5051643;28;20021;-74
2021/06/10 09:17:45;;;;;;;9.88;7.65;;;768.10;2355.20;;;;;;5051640;28;20025;-72
2021/06/10 09:20:23;;;;;;;8.75;6.15;;;768.20;2304.00;;;;;;5053406;28;20028;-71
2021/06/10 09:23:06;;;;;;;9.65;6.55;;;768.50;2329.60;;;;;;5055586;28;20379;-71
2021/06/10 09:25:33;;;;;;;10.35;6.93;;;768.80;2252.80;;;;;;5055613;28;20017;-67
2021/06/10 09:28:02;;;;;;;8.10;6.07;;;768.90;2252.80;;;;;;5055504;28;20235;-69
2021/06/10 09:30:37;;;;;;;7.38;5.70;;;793.70;2252.80;;;;;;5055542;28;20126;-69
2021/06/10 09:33:12;;;;;;;8.77;5.80;;;793.70;2252.80;;;;;;5054624;28;20025;-71
2021/06/10 09:35:41;;;;;;;7.55;5.88;;;793.70;2201.60;;;;;;5045678;28;20130;-71
2021/06/10 09:38:10;;;;;;;6.88;6.15;;;793.60;2201.60;;;;;;5036305;28;20026;-72
2021/06/10 09:40:36;;;;;;;6.70;6.00;;;793.70;2176.00;;;;;;5036833;28;20026;-71
2021/06/10 09:43:03;;;;;;;8.23;5.72;;;793.70;2150.40;;;;;;5062186;28;20028;-72
2021/06/10 09:45:30;;;;;;;8.50;5.20;;;793.70;2124.80;;;;;;5072143;28;20036;-72
2021/06/10 09:47:59;;;;;;;6.00;5.40;;;768.90;2073.60;;;;;;5062474;28;20025;-71
2021/06/10 09:50:30;;;;;;;7.85;4.82;;;768.90;2099.20;;;;;;5055781;28;20075;-72
2021/06/10 09:52:57;;;;;;;6.35;5.18;;;768.80;2022.40;;;;;;5055317;28;20024;-72
2021/06/10 09:55:53;;;;;;;8.93;4.95;;;768.80;2048.00;;;;;;5055558;28;20090;-71
2021/06/10 09:58:22;;;;;;;6.95;5.47;;;768.60;2073.60;;;;;;5045702;28;20522;-68
2021/06/10 10:00:48;;;;;;;6.90;5.35;;;768.60;2073.60;;;;;;5069627;28;20059;-72
2021/06/10 10:03:44;;;;;;;8.77;5.28;;;768.80;2073.60;;;;;;5062451;28;20069;-73
2021/06/10 10:06:27;;;;;;;7.60;4.95;;;793.60;2099.20;;;;;;5059383;28;20413;-68
2021/06/10 10:09:05;;;;;;;9.80;5.50;;;768.90;1996.80;;;;;;5057783;28;20069;-71
2021/06/10 10:11:33;;;;;;;10.02;4.93;;;793.60;2048.00;;;;;;5025795;28;20033;-71
2021/06/10 10:14:01;;;;;;;8.40;4.60;;;793.60;2022.40;;;;;;5071283;28;20125;-71
2021/06/10 10:16:32;;;;;;;7.95;4.57;;;793.60;1996.80;;;;;;5071036;28;20111;-72
2021/06/10 10:19:02;;;;;;;13.98;4.70;;;793.70;1996.80;;;;;;5073018;28;20028;-71
2021/06/10 10:21:30;;;;;;;6.88;4.70;;;793.70;1996.80;;;;;;5061613;28;20017;-71
2021/06/10 10:24:01;;;;;;;7.68;4.75;;;793.70;1996.80;;;;;;5065758;28;20081;-71
2021/06/10 10:26:29;;;;;;;8.23;4.63;;;793.70;1920.00;;;;;;5067863;28;20020;-71
2021/06/10 10:28:55;;;;;;;6.68;4.72;;;793.80;1945.60;;;;;;5066280;28;20031;-71
2021/06/10 10:31:21;;;;;;;5.47;4.28;;;793.90;1945.60;;;;;;5066808;28;20021;-71
2021/06/10 10:33:51;;;;;;;8.18;4.43;;;793.70;1894.40;;;;;;5068248;28;20017;-71
2021/06/10 10:36:32;;;;;;;8.68;4.43;;;793.70;1868.80;;;;;;5069093;28;20066;-70
2021/06/10 10:39:00;;;;;;;6.10;3.97;;;793.80;1894.40;;;;;;5065692;28;20086;-71
2021/06/10 10:41:26;;;;;;;6.13;4.13;;;793.90;1792.00;;;;;;5068487;28;20024;-71
2021/06/10 10:44:11;;;;;;;7.70;4.15;;;793.80;1817.60;;;;;;5070873;28;20047;-72
2021/06/10 10:46:37;;;;;;;6.40;4.20;;;794.00;1792.00;;;;;;5071541;28;20027;-72
2021/06/10 10:49:22;;;;;;;6.10;4.05;;;793.70;1766.40;;;;;;5070470;28;20050;-71
2021/06/10 10:51:48;;;;;;;7.30;3.92;;;793.80;1817.60;;;;;;5059322;28;20025;-72
2021/06/10 10:54:34;;;;;;;6.25;4.00;;;793.90;1766.40;;;;;;5065020;28;20039;-71
2021/06/10 10:57:00;;;;;;;5.75;3.97;;;793.80;1766.40;;;;;;5068580;28;20043;-70
2021/06/10 10:59:50;;;;;;;5.32;3.83;;;793.80;1740.80;;;;;;5067148;28;20032;-71
2021/06/10 11:02:18;;;;;;;5.75;4.18;;;793.80;1740.80;;;;;;5056790;28;20029;-70
2021/06/10 11:04:59;;;;;;;5.50;3.67;;;793.80;1792.00;;;;;;5054028;28;20032;-73
2021/06/10 11:07:37;;;;;;;4.38;3.58;;;793.70;1740.80;;;;;;5053601;28;20474;-73
2021/06/10 11:10:04;;;;;;;5.38;3.92;;;793.70;1638.40;;;;;;5064716;28;20016;-72
2021/06/10 11:12:42;;;;;;;10.23;4.10;;;793.90;1766.40;;;;;;5056400;28;20021;-72
2021/06/10 11:15:26;;;;;;;5.10;3.60;;;793.80;1715.20;;;;;;5053708;28;20376;-73
2021/06/10 11:17:59;;;;;;;8.80;4.20;;;793.70;1689.60;;;;;;5053884;28;20100;-72
2021/06/10 11:20:36;;;;;;;7.50;3.90;;;793.70;1715.20;;;;;;5054455;28;20070;-71
2021/06/10 11:23:12;;;;;;;6.00;3.67;;;768.90;1689.60;;;;;;5066644;28;20021;-73
2021/06/10 11:25:40;;;;;;;5.63;3.50;;;793.60;1664.00;;;;;;5053005;28;20029;-70
2021/06/10 11:28:11;;;;;;;5.30;3.72;;;768.80;1638.40;;;;;;5065519;28;20024;-73
2021/06/10 11:30:39;;;;;;;9.90;4.05;;;768.90;1664.00;;;;;;5070903;28;20063;-76
2021/06/10 11:33:22;;;;;;;5.07;3.88;;;768.90;1664.00;;;;;;5070233;28;20012;-72
2021/06/10 11:35:48;;;;;;;7.63;4.20;;;793.60;1664.00;;;;;;5067312;28;20467;-73
2021/06/10 11:38:26;;;;;;;8.18;3.70;;;793.60;1664.00;;;;;;5067615;28;20060;-73
2021/06/10 11:40:55;;;;;;;7.20;3.60;;;793.70;1715.20;;;;;;5066511;28;20043;-77
2021/06/10 11:43:23;;;;;;;6.38;3.90;;;768.90;1638.40;;;;;;5039171;28;20403;-77
2021/06/10 11:46:00;;;;;;;5.30;3.67;;;768.90;1638.40;;;;;;5055386;28;20036;-74
2021/06/10 11:48:35;;;;;;;4.65;3.47;;;793.70;1638.40;;;;;;5067276;28;20048;-76
2021/06/10 11:51:00;;;;;;;5.50;3.83;;;793.70;1638.40;;;;;;5067268;28;20066;-78
2021/06/10 11:53:30;;;;;;;7.30;4.00;;;793.70;1664.00;;;;;;5070417;28;20024;-73
2021/06/10 11:55:58;;;;;;;4.80;3.30;;;793.70;1638.40;;;;;;5070708;28;20388;-77
2021/06/10 11:58:28;;;;;;;5.70;3.22;;;793.70;1587.20;;;;;;5071757;28;20016;-75
2021/06/10 12:00:55;;;;;;;4.50;3.50;;;793.80;1638.40;;;;;;5062069;28;20387;-73
2021/06/10 12:03:21;;;;;;;5.07;3.25;;;793.80;1638.40;;;;;;5067640;28;20262;-76
2021/06/10 12:05:56;;;;;;;6.25;3.63;;;793.80;1612.80;;;;;;5063965;28;20134;-74
2021/06/10 12:08:25;;;;;;;7.57;3.70;;;793.90;1638.40;;;;;;5066312;28;20040;-74
2021/06/10 12:11:03;;;;;;;5.53;3.80;;;793.90;1612.80;;;;;;5068191;28;20029;-74
2021/06/10 12:13:35;;;;;;;5.32;3.80;;;793.80;1612.80;;;;;;5070896;28;20020;-75
2021/06/10 12:16:03;;;;;;;5.25;3.85;;;793.70;1664.00;;;;;;5067716;28;20021;-75